Terminal Aerodrome Forecast
Issued by NWS

Home | Current Version | Previous Version | Text Only | Print | Product List | Glossary On
Versions: 1 2 3 4 5 6 7 8 9 10 11 12 13 14 15 16 17 18 19 20 21 22 23 24 25 26 27 28 29 30 31 32 33 34 35 36 37 38 39 40
000
FTUS44 KLIX 251734
TAFHDC
TAF
KHDC 251734Z 2518/2618 19010KT 5SM TSRA SCT050CB OVC060
     FM252000 20010KT P6SM SCT050 BKN060
     FM260800 19004KT 3SM BR BKN015
     FM261000 20004KT 1/2SM FG BKN003
     FM261400 21005KT P6SM BKN008
     FM261600 20005KT P6SM BKN035=

USA.gov is the U.S. government's official web portal to all federal, state and local government web resources and services.